Time;durP1;ratioP1;P1;durP2;ratioP2;P2;SDS_P1;SDS_P2;PMS_P1;PMS_P2;Temp;Humidity;BMP_temperature;BMP_pressure;BME280_temperature;BME280_humidity;BME280_pressure;Samples;Min_cycle;Max_cycle;Signal;HPM_P1;HPM_P2
2022/09/15 00:01:09;;;;;;;9.15;2.25;;;;;;;26.19;53.96;100284.09;5071814;28;20492;-72
2022/09/15 00:03:37;;;;;;;5.28;2.03;;;;;;;26.18;54.06;100270.75;5072786;28;20048;-72
2022/09/15 00:06:05;;;;;;;3.88;1.90;;;;;;;26.19;54.03;100278.69;5079027;28;20404;-72
2022/09/15 00:08:33;;;;;;;4.57;1.80;;;;;;;26.19;54.21;100277.84;5093451;28;20040;-72
2022/09/15 00:11:21;;;;;;;7.10;2.22;;;;;;;26.19;53.82;100267.00;5091587;28;20427;-72
2022/09/15 00:13:49;;;;;;;3.78;1.83;;;;;;;26.19;53.99;100273.25;5092715;28;20055;-72
2022/09/15 00:16:19;;;;;;;4.25;2.22;;;;;;;26.18;54.02;100271.56;5093720;28;20044;-72
2022/09/15 00:18:49;;;;;;;5.70;2.10;;;;;;;26.18;53.97;100258.00;5096461;28;20044;-72
2022/09/15 00:21:21;;;;;;;4.50;2.25;;;;;;;26.19;54.03;100256.13;5097118;28;20048;-72
2022/09/15 00:23:49;;;;;;;4.87;2.10;;;;;;;26.18;53.99;100249.88;5097261;28;20396;-72
2022/09/15 00:26:19;;;;;;;5.60;2.35;;;;;;;26.18;53.92;100247.16;5096548;28;20299;-72
2022/09/15 00:28:47;;;;;;;3.40;1.90;;;;;;;26.18;53.94;100251.75;5096561;28;20051;-72
2022/09/15 00:31:18;;;;;;;3.65;2.20;;;;;;;26.18;53.87;100260.72;5096747;28;20044;-72
2022/09/15 00:33:47;;;;;;;4.75;2.15;;;;;;;26.18;54.11;100263.44;5094999;28;20052;-72
2022/09/15 00:36:16;;;;;;;2.50;1.73;;;;;;;26.19;54.08;100280.56;5096261;28;20051;-72
2022/09/15 00:38:43;;;;;;;3.70;1.90;;;;;;;26.18;53.93;100266.16;5087518;28;20043;-72
2022/09/15 00:41:14;;;;;;;4.80;1.63;;;;;;;26.19;54.08;100267.00;5075486;28;20511;-72
2022/09/15 00:44:01;;;;;;;3.10;1.83;;;;;;;26.19;54.03;100261.56;5075708;28;20373;-72
2022/09/15 00:46:49;;;;;;;3.83;2.38;;;;;;;26.19;54.13;100250.72;5075937;28;20404;-73
2022/09/15 00:49:39;;;;;;;2.97;1.98;;;;;;;26.18;54.29;100249.88;5076007;28;20048;-72
2022/09/15 00:52:11;;;;;;;3.45;1.90;;;;;;;26.18;54.19;100262.59;5075907;28;20107;-72
2022/09/15 00:54:53;;;;;;;3.30;1.63;;;;;;;26.19;54.12;100242.56;5075690;28;20044;-72
2022/09/15 00:57:44;;;;;;;;;;;;;;;26.18;54.24;100238.19;5076636;28;20040;-72
2022/09/15 01:00:15;;;;;;;3.63;1.95;;;;;;;26.18;54.34;100241.72;5075530;28;19920;-72
2022/09/15 01:02:44;;;;;;;4.43;2.08;;;;;;;26.17;54.47;100237.34;5075658;28;20063;-72
2022/09/15 01:05:16;;;;;;;3.10;1.80;;;;;;;26.18;54.23;100263.44;5075783;28;20404;-72
2022/09/15 01:07:58;;;;;;;4.32;1.70;;;;;;;26.17;54.19;100264.47;5075486;28;20048;-72
2022/09/15 01:10:29;;;;;;;2.95;1.95;;;;;;;26.18;54.08;100279.72;5075686;28;20049;-72
2022/09/15 01:13:05;;;;;;;7.60;2.22;;;;;;;26.18;54.42;100270.75;5075984;28;20043;-72
2022/09/15 01:15:42;;;;;;;4.25;1.85;;;;;;;26.18;54.79;100306.00;5075440;28;20044;-72
2022/09/15 01:18:38;;;;;;;5.35;1.75;;;;;;;26.18;54.88;100320.41;5075427;28;20506;-72
2022/09/15 01:21:33;;;;;;;3.63;1.70;;;;;;;26.18;54.76;100323.13;5075586;28;20404;-72
2022/09/15 01:24:26;;;;;;;5.25;2.10;;;;;;;26.18;54.55;100349.41;5095429;28;20047;-72
2022/09/15 01:27:02;;;;;;;5.95;2.10;;;;;;;26.19;54.69;100337.53;5095392;28;20075;-72
2022/09/15 01:30:10;;;;;;;2.88;1.80;;;;;;;26.17;54.75;100326.88;5095419;28;20055;-72
2022/09/15 01:33:10;;;;;;;3.95;1.98;;;;;;;26.18;54.68;100344.00;5094867;28;20071;-72
2022/09/15 01:35:55;;;;;;;4.03;2.03;;;;;;;26.17;54.88;100302.47;5092960;28;20125;-72
2022/09/15 01:38:40;;;;;;;3.38;1.92;;;;;;;26.18;54.76;100287.84;5093105;28;20508;-72
2022/09/15 01:41:43;;;;;;;3.47;1.92;;;;;;;26.19;54.75;100302.25;5071767;28;20411;-72
2022/09/15 01:44:39;;;;;;;2.90;1.67;;;;;;;26.18;54.99;100259.88;5069670;28;20052;-72
2022/09/15 01:47:10;;;;;;;3.28;1.90;;;;;;;26.18;54.98;100270.75;5072933;28;20059;-72
2022/09/15 01:49:54;;;;;;;3.88;1.88;;;;;;;26.18;55.09;100295.16;5072678;28;20071;-72
2022/09/15 01:52:23;;;;;;;3.35;2.00;;;;;;;26.18;55.15;100287.00;5072655;28;20064;-72
2022/09/15 01:54:56;;;;;;;3.50;2.00;;;;;;;26.18;55.10;100254.47;5072865;28;20044;-72
2022/09/15 01:57:23;;;;;;;5.60;2.25;;;;;;;26.18;55.17;100244.44;5055394;28;20048;-72
2022/09/15 01:59:53;;;;;;;3.38;2.15;;;;;;;26.18;55.35;100254.47;5072261;28;20524;-72
2022/09/15 02:02:34;;;;;;;5.25;2.03;;;;;;;26.18;55.92;100221.91;5091646;28;20048;-72
2022/09/15 02:05:15;;;;;;;4.10;2.13;;;;;;;26.18;55.70;100222.75;5092922;28;20163;-73
2022/09/15 02:08:03;;;;;;;4.25;2.08;;;;;;;26.17;55.80;100248.19;5092426;28;20404;-72
2022/09/15 02:10:42;;;;;;;5.85;2.40;;;;;;;26.18;56.18;100244.44;5092518;28;20052;-72
2022/09/15 02:13:15;;;;;;;3.22;2.17;;;;;;;26.17;55.85;100215.66;5094788;28;20063;-72
2022/09/15 02:15:56;;;;;;;3.53;2.00;;;;;;;26.17;56.11;100210.22;5093362;28;20063;-72
2022/09/15 02:19:00;;;;;;;2.45;1.70;;;;;;;26.18;56.24;100233.59;5094460;28;20044;-72
2022/09/15 02:21:54;;;;;;;4.78;1.77;;;;;;;26.18;55.90;100221.91;5093651;28;20055;-72
2022/09/15 02:24:27;;;;;;;3.05;1.98;;;;;;;26.18;56.21;100219.19;5092463;28;20052;-72
2022/09/15 02:26:56;;;;;;;3.78;2.00;;;;;;;26.18;56.22;100228.16;5092244;28;20431;-72
2022/09/15 02:29:27;;;;;;;5.07;1.98;;;;;;;26.19;55.80;100223.56;5091911;28;20059;-72
2022/09/15 02:31:58;;;;;;;4.32;2.20;;;;;;;26.18;55.67;100208.34;5092727;28;20155;-72
2022/09/15 02:34:37;;;;;;;3.78;2.20;;;;;;;26.19;55.46;100204.59;5074762;28;20047;-74
2022/09/15 02:37:05;;;;;;;3.72;2.08;;;;;;;26.18;56.27;100200.19;5092346;28;20044;-73
2022/09/15 02:39:38;;;;;;;4.72;2.45;;;;;;;26.16;56.60;100197.66;5074218;28;20052;-71
2022/09/15 02:42:06;;;;;;;4.65;2.20;;;;;;;26.16;57.24;100197.66;5071117;28;20048;-72
2022/09/15 02:44:34;;;;;;;5.47;2.47;;;;;;;26.16;57.62;100184.09;5071532;28;20049;-71
2022/09/15 02:47:02;;;;;;;4.55;2.30;;;;;;;26.17;58.13;100176.78;5071485;28;20416;-72
2022/09/15 02:49:30;;;;;;;7.53;2.38;;;;;;;26.16;57.86;100178.66;5071291;28;20057;-72
2022/09/15 02:51:57;;;;;;;7.55;2.28;;;;;;;26.17;57.71;100160.50;5072164;28;20049;-72
2022/09/15 02:54:24;;;;;;;4.90;2.05;;;;;;;26.16;58.17;100148.81;5071508;28;20063;-73
2022/09/15 02:56:51;;;;;;;3.75;2.70;;;;;;;26.16;57.31;100139.84;5071793;28;20540;-72
2022/09/15 02:59:19;;;;;;;4.68;2.38;;;;;;;26.16;58.36;100121.69;5071120;28;20052;-72
2022/09/15 03:01:46;;;;;;;7.38;2.85;;;;;;;26.16;57.97;100118.16;5087075;28;20052;-73
2022/09/15 03:04:13;;;;;;;4.60;2.40;;;;;;;26.15;58.04;100122.72;5094056;28;20051;-72
2022/09/15 03:06:41;;;;;;;3.55;2.30;;;;;;;26.14;58.40;100105.63;5093521;28;20047;-72
2022/09/15 03:09:08;;;;;;;6.25;2.63;;;;;;;26.13;58.75;100106.66;5093411;28;20047;-72
2022/09/15 03:11:36;;;;;;;8.82;2.67;;;;;;;26.14;58.72;100104.78;5092514;28;20044;-72
2022/09/15 03:14:05;;;;;;;5.95;2.75;;;;;;;26.11;58.81;100092.44;5093393;28;20055;-72
2022/09/15 03:16:34;;;;;;;6.88;2.72;;;;;;;26.11;58.74;100095.16;5093435;28;20048;-72
2022/09/15 03:19:02;;;;;;;4.38;2.42;;;;;;;26.12;58.57;100087.84;5093412;28;20048;-72
2022/09/15 03:21:30;;;;;;;5.20;2.20;;;;;;;26.11;59.20;100092.44;5093680;28;20040;-72
2022/09/15 03:23:57;;;;;;;7.85;3.30;;;;;;;26.13;59.58;100105.84;5091798;28;20523;-72
2022/09/15 03:26:25;;;;;;;6.30;2.70;;;;;;;26.12;59.48;100110.38;5076490;28;20357;-72
2022/09/15 03:28:52;;;;;;;8.57;2.78;;;;;;;26.11;59.34;100108.72;5093176;28;20051;-72
2022/09/15 03:31:20;;;;;;;6.75;2.83;;;;;;;26.12;59.13;100112.25;5093177;28;20047;-72
2022/09/15 03:33:48;;;;;;;8.15;3.22;;;;;;;26.11;59.40;100106.00;5093435;28;20581;-72
2022/09/15 03:36:15;;;;;;;8.98;2.90;;;;;;;26.11;59.50;100100.56;5092339;28;20051;-72
2022/09/15 03:38:42;;;;;;;10.77;3.30;;;;;;;26.10;59.71;100087.22;5093330;28;20047;-72
2022/09/15 03:41:11;;;;;;;8.43;3.45;;;;;;;26.10;59.43;100096.19;5089663;28;20499;-71
2022/09/15 03:43:38;;;;;;;10.35;3.55;;;;;;;26.09;60.00;100093.66;5072306;28;20368;-72
2022/09/15 03:46:07;;;;;;;7.85;3.05;;;;;;;26.09;59.76;100080.09;5071937;28;20052;-72
2022/09/15 03:48:35;;;;;;;8.75;3.30;;;;;;;26.09;59.96;100067.41;5073279;28;20041;-72
2022/09/15 03:51:04;;;;;;;7.20;3.00;;;;;;;26.09;59.74;100078.25;5073982;28;20044;-72
2022/09/15 03:53:33;;;;;;;7.55;3.08;;;;;;;26.08;59.42;100081.97;5076682;28;20044;-72
2022/09/15 03:56:16;;;;;;;7.82;3.53;;;;;;;26.08;59.71;100076.53;5077233;28;20404;-72
2022/09/15 03:58:44;;;;;;;7.65;3.20;;;;;;;26.08;59.78;100081.97;5077161;28;20071;-72
2022/09/15 04:01:11;;;;;;;6.75;3.33;;;;;;;26.08;59.67;100071.13;5076560;28;20070;-72
2022/09/15 04:03:39;;;;;;;5.93;2.67;;;;;;;26.08;59.93;100062.97;5076727;28;20504;-72
2022/09/15 04:06:13;;;;;;;9.82;3.17;;;;;;;26.09;59.82;100069.25;5077215;28;20052;-72
2022/09/15 04:08:41;;;;;;;7.47;2.60;;;;;;;26.08;59.49;100073.84;5095741;28;20399;-72
2022/09/15 04:11:10;;;;;;;8.95;3.78;;;;;;;26.08;59.67;100065.69;5096604;28;20040;-72
2022/09/15 04:13:39;;;;;;;5.43;3.03;;;;;;;26.08;59.71;100078.41;5097029;28;20047;-72
2022/09/15 04:16:09;;;;;;;5.28;2.80;;;;;;;26.08;59.86;100081.13;5096597;28;20040;-72
2022/09/15 04:18:36;;;;;;;4.00;2.65;;;;;;;26.07;60.07;100090.31;5096673;28;20051;-72
2022/09/15 04:21:12;;;;;;;8.05;3.08;;;;;;;26.05;59.91;100098.66;5095883;28;20063;-72
2022/09/15 04:23:40;;;;;;;9.15;3.00;;;;;;;26.05;59.67;100097.78;5097308;28;20407;-72
2022/09/15 04:26:12;;;;;;;8.15;3.33;;;;;;;26.03;59.59;100103.41;5096360;28;20036;-72
2022/09/15 04:28:40;;;;;;;5.88;3.40;;;;;;;26.04;59.80;100117.81;5096523;28;20052;-72
2022/09/15 04:31:10;;;;;;;7.28;2.95;;;;;;;26.03;59.87;100122.41;5096794;28;20407;-72
2022/09/15 04:33:40;;;;;;;8.40;2.97;;;;;;;26.04;59.69;100128.66;5096249;28;20500;-72
2022/09/15 04:36:11;;;;;;;7.43;3.13;;;;;;;26.04;59.58;100143.06;5096467;28;20044;-72
2022/09/15 04:38:39;;;;;;;4.57;2.83;;;;;;;26.04;59.64;100137.63;5096612;28;20500;-72
2022/09/15 04:41:06;;;;;;;4.60;2.88;;;;;;;26.05;59.89;100141.19;5096154;28;20051;-72
2022/09/15 04:43:34;;;;;;;4.70;2.92;;;;;;;26.05;59.73;100152.91;5080463;28;20044;-72
2022/09/15 04:46:02;;;;;;;4.90;3.03;;;;;;;26.05;59.85;100142.06;5075795;28;20059;-72
2022/09/15 04:48:30;;;;;;;9.10;3.60;;;;;;;26.05;59.57;100138.47;5076199;28;20396;-72
2022/09/15 04:51:02;;;;;;;6.68;3.33;;;;;;;26.04;59.88;100137.63;5075735;28;20045;-72
2022/09/15 04:53:30;;;;;;;6.82;2.80;;;;;;;26.05;59.75;100139.34;5075677;28;20051;-72
2022/09/15 04:56:11;;;;;;;6.35;3.05;;;;;;;26.05;60.04;100142.06;5075489;28;20049;-72
2022/09/15 04:58:44;;;;;;;9.40;3.33;;;;;;;26.05;59.91;100147.47;5075850;28;20044;-72
2022/09/15 05:01:14;;;;;;;5.55;3.40;;;;;;;26.05;59.92;100157.47;5075775;28;20052;-72
2022/09/15 05:03:43;;;;;;;9.43;3.83;;;;;;;26.03;60.00;100162.25;5075025;28;20044;-72
2022/09/15 05:06:13;;;;;;;6.20;2.70;;;;;;;26.05;60.05;100160.19;5074720;28;20037;-72
2022/09/15 05:08:40;;;;;;;6.32;2.88;;;;;;;26.05;60.04;100169.19;5075287;28;20119;-72
2022/09/15 05:11:11;;;;;;;5.88;2.90;;;;;;;26.05;60.00;100169.19;5075376;28;20493;-72
2022/09/15 05:13:39;;;;;;;6.53;3.05;;;;;;;26.05;59.97;100171.03;5075821;28;20044;-72
2022/09/15 05:16:12;;;;;;;5.93;3.22;;;;;;;26.04;60.05;100175.63;5075510;28;20048;-72
2022/09/15 05:18:40;;;;;;;;;;;;;;;26.04;59.80;100177.50;5076141;28;20511;-72
2022/09/15 05:21:10;;;;;;;6.72;3.10;;;;;;;26.05;60.11;100176.44;5075301;28;20280;-72
2022/09/15 05:23:38;;;;;;;6.15;2.75;;;;;;;26.05;60.21;100177.31;5080076;28;20074;-72
2022/09/15 05:26:10;;;;;;;5.75;2.63;;;;;;;26.05;60.11;100177.31;5094407;28;20051;-72
2022/09/15 05:28:38;;;;;;;8.30;3.00;;;;;;;26.06;59.96;100175.44;5094520;28;20055;-72
2022/09/15 05:31:11;;;;;;;6.13;2.60;;;;;;;26.05;60.23;100168.31;5095164;28;20047;-72
2022/09/15 05:33:38;;;;;;;;;;;;;;;26.05;60.21;100158.34;5095305;28;20051;-72
2022/09/15 05:36:09;;;;;;;5.72;2.80;;;;;;;26.05;60.17;100162.88;5095433;28;19927;-72
2022/09/15 05:38:36;;;;;;;8.40;3.25;;;;;;;26.04;59.96;100167.47;5094952;28;20039;-72
2022/09/15 05:41:16;;;;;;;7.20;3.63;;;;;;;26.06;59.88;100175.44;5095132;28;20044;-72
2022/09/15 05:43:45;;;;;;;6.40;3.42;;;;;;;26.05;59.82;100177.31;5086353;28;20377;-72
2022/09/15 05:46:13;;;;;;;5.82;2.85;;;;;;;26.05;60.06;100187.31;5091759;28;20043;-72
2022/09/15 05:48:41;;;;;;;6.43;2.85;;;;;;;26.05;60.18;100203.56;5095102;28;20044;-72
2022/09/15 05:51:09;;;;;;;8.57;2.95;;;;;;;26.05;60.30;100200.88;5095109;28;20048;-72
2022/09/15 05:53:37;;;;;;;5.00;2.95;;;;;;;26.04;60.06;100197.31;5094723;28;20051;-72
2022/09/15 05:56:08;;;;;;;7.63;3.60;;;;;;;26.05;60.06;100192.72;5094990;28;20044;-72
2022/09/15 05:58:41;;;;;;;12.55;3.20;;;;;;;26.04;60.18;100183.75;5095426;28;20055;-72
2022/09/15 06:01:28;;;;;;;3.88;2.63;;;;;;;26.04;60.51;100197.31;5085847;28;20045;-71
2022/09/15 06:03:57;;;;;;;4.90;3.03;;;;;;;26.04;60.45;100199.19;5074294;28;20503;-72
2022/09/15 06:06:25;;;;;;;5.82;3.20;;;;;;;26.04;60.68;100193.78;5074331;28;20051;-72
2022/09/15 06:08:55;;;;;;;7.25;3.30;;;;;;;26.04;59.98;100193.78;5089838;28;20044;-72
2022/09/15 06:11:29;;;;;;;3.90;2.42;;;;;;;26.04;59.97;100212.75;5094596;28;20478;-72
2022/09/15 06:14:02;;;;;;;5.75;2.95;;;;;;;26.04;59.73;100213.59;5094219;28;20047;-72
2022/09/15 06:16:31;;;;;;;4.60;2.90;;;;;;;26.06;59.61;100218.84;5094618;28;20051;-72
2022/09/15 06:19:02;;;;;;;6.03;2.78;;;;;;;26.05;60.39;100218.00;5094314;28;20048;-72
2022/09/15 06:21:31;;;;;;;6.60;3.63;;;;;;;26.06;60.55;100235.13;5094177;28;20400;-72
2022/09/15 06:24:02;;;;;;;7.40;3.47;;;;;;;26.05;60.42;100245.13;5094523;28;20047;-72
2022/09/15 06:26:29;;;;;;;5.65;3.10;;;;;;;26.05;60.24;100247.84;5094282;28;20040;-72
2022/09/15 06:29:01;;;;;;;6.05;3.20;;;;;;;26.05;60.21;100230.69;5094265;28;20048;-72
2022/09/15 06:31:31;;;;;;;6.38;3.08;;;;;;;26.06;60.13;100235.97;5095215;28;20094;-72
2022/09/15 06:33:59;;;;;;;5.85;2.83;;;;;;;26.06;59.69;100241.38;5093932;28;20047;-72
2022/09/15 06:36:28;;;;;;;11.43;3.85;;;;;;;26.06;60.77;100230.53;5092753;28;20087;-72
2022/09/15 06:38:55;;;;;;;7.25;3.22;;;;;;;26.04;61.09;100231.75;5094249;28;20051;-72
2022/09/15 06:41:23;;;;;;;7.63;3.53;;;;;;;26.03;61.27;100239.03;5093752;28;20051;-72
2022/09/15 06:43:51;;;;;;;7.05;3.88;;;;;;;26.03;61.91;100233.63;5093004;28;20044;-72
2022/09/15 06:46:22;;;;;;;9.20;4.28;;;;;;;25.86;63.29;100238.44;5073387;28;20472;-73
2022/09/15 06:48:50;;;;;;;8.35;3.97;;;;;;;25.89;63.26;100232.63;5091647;28;20380;-72
2022/09/15 06:51:21;;;;;;;6.63;3.67;;;;;;;25.92;62.72;100235.97;5093456;28;20055;-72
2022/09/15 06:53:48;;;;;;;7.25;3.85;;;;;;;25.92;62.91;100231.38;5093858;28;20051;-71
2022/09/15 06:56:18;;;;;;;5.55;3.30;;;;;;;25.92;62.67;100233.25;5093619;28;20440;-72
2022/09/15 06:58:49;;;;;;;7.32;3.80;;;;;;;25.94;62.87;100237.47;5094012;28;20044;-73
2022/09/15 07:01:22;;;;;;;11.68;4.40;;;;;;;25.95;62.70;100244.56;5083384;28;20415;-73
2022/09/15 07:03:50;;;;;;;7.45;4.10;;;;;;;25.95;62.38;100233.72;5073500;28;20423;-73
2022/09/15 07:06:18;;;;;;;12.07;4.25;;;;;;;25.95;63.12;100232.91;5073645;28;20511;-73
2022/09/15 07:08:46;;;;;;;9.70;4.95;;;;;;;25.91;63.06;100227.00;5073157;28;20041;-72
2022/09/15 07:11:13;;;;;;;10.73;4.63;;;;;;;25.90;63.04;100225.34;5072785;28;20399;-73
2022/09/15 07:13:41;;;;;;;7.72;4.07;;;;;;;25.89;62.87;100223.66;5073882;28;20044;-73
2022/09/15 07:16:11;;;;;;;8.27;4.10;;;;;;;25.89;62.78;100235.34;5087272;28;20051;-73
2022/09/15 07:18:38;;;;;;;10.05;4.32;;;;;;;25.91;62.74;100231.59;5093280;28;20089;-72
2022/09/15 07:21:12;;;;;;;12.32;4.57;;;;;;;25.93;62.99;100227.66;5093383;28;20044;-73
2022/09/15 07:23:40;;;;;;;13.20;5.70;;;;;;;25.88;63.36;100228.22;5093230;28;20044;-73
2022/09/15 07:26:08;;;;;;;9.27;4.65;;;;;;;25.85;63.11;100228.63;5092760;28;20043;-73
2022/09/15 07:28:36;;;;;;;7.97;4.05;;;;;;;25.88;63.01;100220.06;5093241;28;20376;-73
2022/09/15 07:31:05;;;;;;;9.45;4.75;;;;;;;25.89;62.88;100218.22;5093555;28;20048;-73
2022/09/15 07:33:33;;;;;;;7.95;4.82;;;;;;;25.91;63.07;100216.16;5092716;28;20060;-73
2022/09/15 07:36:05;;;;;;;13.68;5.07;;;;;;;25.89;62.84;100213.66;5093138;28;20051;-73
2022/09/15 07:38:34;;;;;;;14.48;5.68;;;;;;;25.88;62.60;100201.09;5093292;28;20044;-73
2022/09/15 07:41:06;;;;;;;12.75;5.57;;;;;;;25.90;62.24;100203.63;5093252;28;20044;-73
2022/09/15 07:43:34;;;;;;;12.02;5.22;;;;;;;25.90;61.73;100195.50;5093689;28;20044;-73
2022/09/15 07:46:02;;;;;;;12.32;5.15;;;;;;;25.89;61.30;100201.97;5082097;28;20381;-73
2022/09/15 07:48:30;;;;;;;13.82;5.32;;;;;;;25.88;60.99;100194.84;5072119;28;20041;-72
2022/09/15 07:50:58;;;;;;;11.55;5.20;;;;;;;25.87;60.28;100193.16;5072618;28;20044;-72
2022/09/15 07:53:29;;;;;;;15.02;5.57;;;;;;;25.85;59.74;100187.94;5073086;28;20049;-73
2022/09/15 07:55:56;;;;;;;13.93;4.80;;;;;;;25.84;59.55;100182.69;5072896;28;20041;-72
2022/09/15 07:58:24;;;;;;;14.65;4.68;;;;;;;25.84;59.72;100188.09;5072741;28;20048;-73
2022/09/15 08:00:51;;;;;;;14.57;5.60;;;;;;;25.82;59.56;100191.03;5072487;28;20042;-73
2022/09/15 08:03:19;;;;;;;12.20;4.80;;;;;;;25.82;59.63;100199.16;5073153;28;20045;-72
2022/09/15 08:05:46;;;;;;;10.45;4.72;;;;;;;25.84;59.71;100193.53;5054744;28;20049;-72
2022/09/15 08:08:13;;;;;;;9.95;4.07;;;;;;;25.84;59.66;100202.50;5073101;28;20048;-73
2022/09/15 08:10:40;;;;;;;12.18;5.03;;;;;;;25.86;59.60;100200.47;5091740;28;20075;-73
2022/09/15 08:13:08;;;;;;;10.68;4.63;;;;;;;25.88;59.70;100200.25;5093070;28;20043;-72
2022/09/15 08:15:36;;;;;;;9.82;4.30;;;;;;;25.90;59.86;100203.63;5091858;28;20040;-73
2022/09/15 08:18:05;;;;;;;13.77;4.85;;;;;;;25.93;59.89;100222.25;5092870;28;20075;-73
2022/09/15 08:20:32;;;;;;;10.10;4.95;;;;;;;25.95;60.16;100212.03;5093165;28;20044;-72
2022/09/15 08:23:00;;;;;;;9.77;4.55;;;;;;;25.95;60.41;100228.31;5092581;28;20055;-72
2022/09/15 08:25:29;;;;;;;9.60;3.97;;;;;;;25.96;60.41;100218.28;5092968;28;20051;-72
2022/09/15 08:27:58;;;;;;;8.60;4.35;;;;;;;25.96;60.26;100219.13;5092868;28;20047;-70
2022/09/15 08:30:26;;;;;;;16.77;5.68;;;;;;;25.99;59.85;100224.19;5093226;28;20048;-73
2022/09/15 08:32:56;;;;;;;9.55;4.75;;;;;;;26.02;59.92;100214.84;5092239;28;20056;-72
2022/09/15 08:35:23;;;;;;;6.93;3.47;;;;;;;26.04;59.72;100215.47;5092841;28;20048;-73
2022/09/15 08:37:53;;;;;;;8.07;3.58;;;;;;;26.06;59.98;100213.41;5093625;28;20483;-73
2022/09/15 08:40:29;;;;;;;10.35;4.50;;;;;;;26.05;59.90;100207.16;5095259;28;20051;-73
2022/09/15 08:43:02;;;;;;;10.50;4.97;;;;;;;26.07;59.78;100213.22;5096338;28;20399;-73
2022/09/15 08:45:33;;;;;;;;;;;;;;;26.06;59.64;100203.41;5097156;28;20062;-72
2022/09/15 08:48:03;;;;;;;8.52;4.18;;;;;;;26.07;59.60;100206.97;5076516;28;19920;-72
2022/09/15 08:50:42;;;;;;;10.40;3.83;;;;;;;26.08;59.33;100206.75;5075880;28;20055;-73
2022/09/15 08:53:22;;;;;;;11.77;5.15;;;;;;;26.07;58.44;100201.53;5075136;28;20055;-73
2022/09/15 08:55:53;;;;;;;8.77;5.20;;;;;;;26.06;58.28;100205.28;5075969;28;20101;-72
2022/09/15 08:58:23;;;;;;;11.05;4.75;;;;;;;26.06;58.33;100195.28;5075622;28;20041;-73
2022/09/15 09:01:01;;;;;;;12.25;5.70;;;;;;;26.05;58.70;100190.88;5075783;28;20048;-73
2022/09/15 09:03:57;;;;;;;12.82;5.80;;;;;;;26.03;58.26;100184.78;5075967;28;20475;-73
2022/09/15 09:06:36;;;;;;;12.35;5.78;;;;;;;26.03;58.28;100181.25;5075921;28;20059;-72
2022/09/15 09:09:23;;;;;;;15.63;5.60;;;;;;;26.02;58.37;100166.84;5074144;28;20056;-72
2022/09/15 09:12:26;;;;;;;13.27;5.85;;;;;;;26.00;58.18;100174.31;5074404;28;20052;-73
2022/09/15 09:14:59;;;;;;;13.43;5.80;;;;;;;26.00;58.17;100174.31;5093765;28;20576;-73
2022/09/15 09:17:38;;;;;;;9.40;4.45;;;;;;;25.99;58.16;100159.09;5093592;28;20040;-72
2022/09/15 09:20:30;;;;;;;10.10;5.53;;;;;;;25.99;58.17;100172.66;5093705;28;20060;-73
2022/09/15 09:23:00;;;;;;;10.02;4.80;;;;;;;26.00;58.08;100165.34;5093717;28;20052;-73
2022/09/15 09:25:28;;;;;;;10.88;5.13;;;;;;;26.00;57.91;100165.34;5100255;28;20098;-73
2022/09/15 09:27:57;;;;;;;10.27;4.93;;;;;;;26.01;57.51;100167.03;5113694;28;20040;-73
2022/09/15 09:30:28;;;;;;;11.70;4.70;;;;;;;26.01;57.13;100162.47;5113344;28;20055;-72
2022/09/15 09:33:24;;;;;;;9.75;3.90;;;;;;;26.02;57.15;100150.56;5113306;28;20063;-73
2022/09/15 09:35:52;;;;;;;9.27;4.22;;;;;;;26.01;57.08;100146.19;5113399;28;20380;-73
2022/09/15 09:38:30;;;;;;;8.75;3.95;;;;;;;26.03;56.97;100140.56;5113347;28;20146;-72
2022/09/15 09:41:00;;;;;;;9.98;5.50;;;;;;;26.03;56.74;100152.25;5113863;28;20047;-73
2022/09/15 09:43:30;;;;;;;8.70;4.05;;;;;;;26.03;56.58;100149.53;5113254;28;20056;-72
2022/09/15 09:45:58;;;;;;;8.95;3.55;;;;;;;26.04;56.33;100159.34;5113230;28;20067;-73
2022/09/15 09:48:27;;;;;;;11.80;4.53;;;;;;;26.04;56.23;100162.06;5098794;28;20150;-73
2022/09/15 09:50:55;;;;;;;7.80;4.00;;;;;;;26.04;56.34;100155.78;5106318;28;20058;-73
2022/09/15 09:53:25;;;;;;;10.25;4.65;;;;;;;26.06;56.46;100161.88;5074426;28;20049;-72
2022/09/15 09:55:54;;;;;;;9.07;3.85;;;;;;;26.06;56.73;100164.59;5074737;28;20053;-73
2022/09/15 09:58:24;;;;;;;8.55;3.63;;;;;;;26.07;56.51;100163.56;5074279;28;20043;-72
2022/09/15 10:00:52;;;;;;;7.38;4.50;;;;;;;26.06;56.74;100164.59;5081170;28;20048;-73
2022/09/15 10:03:24;;;;;;;11.02;3.90;;;;;;;26.06;56.91;100154.59;5094873;28;20047;-73
2022/09/15 10:06:00;;;;;;;10.82;3.60;;;;;;;26.06;57.04;100143.72;5094662;28;20048;-73
2022/09/15 10:08:28;;;;;;;11.68;4.03;;;;;;;26.05;57.12;100143.91;5094415;28;20040;-72
2022/09/15 10:11:02;;;;;;;10.45;4.50;;;;;;;26.06;57.25;100151.88;5094458;28;20464;-73
2022/09/15 10:13:30;;;;;;;8.40;3.67;;;;;;;26.07;57.38;100136.44;5094959;28;20048;-73
2022/09/15 10:16:00;;;;;;;11.40;5.20;;;;;;;26.06;57.54;100129.34;5094363;28;20047;-73
2022/09/15 10:18:30;;;;;;;8.45;3.72;;;;;;;26.07;57.73;100126.41;5094184;28;20043;-73
2022/09/15 10:20:59;;;;;;;8.05;4.10;;;;;;;26.07;57.87;100110.13;5094880;28;20044;-73
2022/09/15 10:23:29;;;;;;;12.40;4.40;;;;;;;26.07;57.83;100104.72;5094135;28;20404;-74
2022/09/15 10:26:18;;;;;;;7.45;3.85;;;;;;;26.09;57.89;100108.09;5094568;28;20052;-74
2022/09/15 10:29:08;;;;;;;10.55;4.28;;;;;;;26.11;57.55;100113.31;5092891;28;20051;-74
2022/09/15 10:31:35;;;;;;;10.07;3.80;;;;;;;26.12;57.18;100104.97;5094605;28;20058;-73
2022/09/15 10:34:29;;;;;;;6.78;3.63;;;;;;;26.14;57.46;100119.19;5093841;28;20055;-73
2022/09/15 10:37:15;;;;;;;9.43;3.67;;;;;;;26.16;57.40;100118.97;5094005;28;20464;-74
2022/09/15 10:39:55;;;;;;;11.68;5.85;;;;;;;26.18;57.16;100110.66;5094481;28;20051;-72
2022/09/15 10:42:40;;;;;;;20.88;10.63;;;;;;;26.19;57.15;100113.19;5093671;28;20407;-74
2022/09/15 10:45:25;;;;;;;48.45;16.48;;;;;;;26.20;56.82;100105.88;5093710;28;20055;-75
2022/09/15 10:48:19;;;;;;;28.08;11.13;;;;;;;26.21;56.61;100094.84;5093074;28;20392;-74
2022/09/15 10:51:14;;;;;;;23.33;8.23;;;;;;;26.22;56.73;100109.25;5091782;28;20407;-74
2022/09/15 10:53:45;;;;;;;12.50;6.22;;;;;;;26.23;56.77;100121.78;5093781;28;20048;-74
2022/09/15 10:56:19;;;;;;;16.23;5.10;;;;;;;26.24;56.60;100115.31;5094118;28;20048;-73
2022/09/15 10:59:14;;;;;;;9.80;4.55;;;;;;;26.25;56.80;100122.41;5093238;28;20044;-74
2022/09/15 11:01:52;;;;;;;13.68;4.43;;;;;;;26.25;56.71;100120.56;5079488;28;20047;-74
2022/09/15 11:04:43;;;;;;;9.70;4.55;;;;;;;26.24;56.67;100121.56;5074052;28;20055;-74
2022/09/15 11:07:43;;;;;;;13.35;4.00;;;;;;;26.24;56.89;100108.00;5073666;28;20405;-74
2022/09/15 11:10:19;;;;;;;9.43;4.43;;;;;;;26.26;57.58;100108.66;5073338;28;20052;-74
2022/09/15 11:13:17;;;;;;;7.28;3.85;;;;;;;26.27;57.21;100118.47;5073306;28;20048;-74
2022/09/15 11:16:07;;;;;;;10.50;4.53;;;;;;;26.27;57.33;100114.91;5072202;28;20049;-74
2022/09/15 11:19:09;;;;;;;7.95;4.05;;;;;;;26.27;57.66;100118.47;5072794;28;20063;-73
2022/09/15 11:21:52;;;;;;;12.80;4.10;;;;;;;26.28;57.61;100135.59;5073737;28;20052;-73
2022/09/15 11:24:27;;;;;;;7.50;4.47;;;;;;;26.29;59.43;100131.81;5073190;28;20041;-74
2022/09/15 11:27:21;;;;;;;8.98;4.00;;;;;;;26.28;59.11;100141.00;5083756;28;20051;-74
2022/09/15 11:30:12;;;;;;;9.18;3.70;;;;;;;26.27;59.26;100128.47;5093269;28;20047;-74
2022/09/15 11:33:01;;;;;;;8.18;4.03;;;;;;;26.28;59.81;100111.16;5092883;28;20052;-74
2022/09/15 11:35:43;;;;;;;8.20;3.90;;;;;;;26.27;59.89;100104.91;5080848;28;20044;-74
2022/09/15 11:38:29;;;;;;;9.63;4.20;;;;;;;26.27;59.63;100117.63;5093726;28;20369;-73
2022/09/15 11:41:15;;;;;;;11.07;3.72;;;;;;;26.28;59.59;100113.88;5092901;28;20047;-73
2022/09/15 11:43:52;;;;;;;9.98;4.60;;;;;;;26.29;59.41;100111.00;5092987;28;20055;-73
2022/09/15 11:46:29;;;;;;;18.23;5.10;;;;;;;26.31;59.01;100129.78;5093288;28;20379;-73
2022/09/15 11:49:15;;;;;;;18.85;6.22;;;;;;;26.29;59.13;100162.53;5091992;28;20048;-73
2022/09/15 11:51:51;;;;;;;16.08;5.55;;;;;;;26.29;59.25;100148.97;5072226;28;20496;-73
2022/09/15 11:54:33;;;;;;;18.70;5.85;;;;;;;26.27;60.06;100136.63;5072815;28;20115;-73